createdAt,value
2016-10-07T09:34:20.532Z,23.5
2016-10-07T09:35:20.513Z,23.5
2016-10-07T09:36:20.540Z,23.55
2016-10-07T09:37:20.449Z,23.6
2016-10-07T09:38:20.472Z,23.58
2016-10-07T09:39:20.409Z,23.57
2016-10-07T09:40:20.405Z,23.67
2016-10-07T09:41:20.362Z,23.67
2016-10-07T09:42:20.333Z,23.76
2016-10-07T09:43:20.619Z,23.76
2016-10-07T09:44:20.298Z,23.95
2016-10-07T09:45:20.278Z,23.89
2016-10-07T09:46:20.258Z,23.85
2016-10-07T09:47:20.264Z,23.98
2016-10-07T09:48:20.217Z,23.98
2016-10-07T09:49:20.195Z,23.92
2016-10-07T09:50:20.478Z,23.95
2016-10-07T09:51:20.201Z,23.9
2016-10-07T09:52:20.128Z,23.94
2016-10-07T09:53:20.106Z,23.92
2016-10-07T09:54:20.095Z,23.95
2016-10-07T09:55:20.076Z,23.9
2016-10-07T09:56:20.043Z,23.94
2016-10-07T09:57:20.424Z,23.86
2016-10-07T09:58:20.013Z,23.87
2016-10-07T09:59:19.990Z,23.79
2016-10-07T10:00:19.971Z,23.82
2016-10-07T10:01:20.258Z,23.79
2016-10-07T10:02:19.939Z,23.68
2016-10-07T10:03:19.914Z,23.71
2016-10-07T10:04:19.890Z,23.7
2016-10-07T10:05:19.862Z,23.62
2016-10-07T10:06:19.847Z,23.6
2016-10-07T10:07:19.828Z,23.6
2016-10-07T10:08:19.808Z,23.49
2016-10-07T10:09:19.784Z,23.58
2016-10-07T10:10:19.758Z,23.57
2016-10-07T10:11:19.738Z,23.5
2016-10-07T10:12:19.720Z,23.55
2016-10-07T10:13:19.702Z,23.46
2016-10-07T10:14:19.684Z,23.39
2016-10-07T10:15:19.654Z,23.38
2016-10-07T10:16:19.641Z,23.46
2016-10-07T10:17:19.613Z,23.47
2016-10-07T10:18:19.599Z,23.47
2016-10-07T10:19:20.193Z,23.49
2016-10-07T10:20:19.558Z,23.46
2016-10-07T10:21:19.534Z,23.53
2016-10-07T10:22:19.521Z,23.6
2016-10-07T10:23:19.490Z,23.68
2016-10-07T10:24:19.475Z,23.62
2016-10-07T10:25:19.457Z,23.67
2016-10-07T10:26:19.430Z,23.67
2016-10-07T10:27:19.409Z,23.64
2016-10-07T10:28:19.387Z,23.71
2016-10-07T10:29:19.379Z,23.76
2016-10-07T10:30:19.344Z,23.8
2016-10-07T10:31:19.345Z,23.8
2016-10-07T10:32:19.304Z,23.94
2016-10-07T10:33:19.286Z,23.95
2016-10-07T10:34:19.279Z,23.97
2016-10-07T10:35:19.247Z,23.94
2016-10-07T10:36:19.229Z,24.05
2016-10-07T10:37:19.205Z,24.08
2016-10-07T10:38:19.188Z,24.05
2016-10-07T10:39:19.168Z,24.05
2016-10-07T10:40:19.149Z,24.05
2016-10-07T10:41:19.179Z,24.08
2016-10-07T10:42:19.098Z,24.12
2016-10-07T10:43:19.081Z,24.16
2016-10-07T10:44:19.375Z,24.12
2016-10-07T10:45:19.044Z,24.07
2016-10-07T10:46:19.023Z,24.1
2016-10-07T10:47:19.007Z,24.05
2016-10-07T10:48:18.984Z,24.1
2016-10-07T10:49:18.965Z,24.08
2016-10-07T10:50:18.983Z,23.94
2016-10-07T10:51:18.918Z,23.94
2016-10-07T10:52:18.901Z,24
2016-10-07T10:53:18.886Z,23.9
2016-10-07T10:54:18.872Z,23.89
2016-10-07T10:55:18.844Z,23.87
2016-10-07T10:56:18.816Z,23.82
2016-10-07T10:57:18.804Z,23.8
2016-10-07T10:58:18.779Z,23.8
2016-10-07T10:59:18.760Z,23.75
2016-10-07T11:00:18.737Z,23.68
2016-10-07T11:01:18.716Z,23.68
2016-10-07T11:02:18.697Z,23.64
2016-10-07T11:03:18.678Z,23.58
2016-10-07T11:04:18.655Z,23.57
2016-10-07T11:05:18.637Z,23.55
2016-10-07T11:06:18.619Z,23.46
2016-10-07T11:07:18.598Z,23.47
2016-10-07T11:08:18.578Z,23.47
2016-10-07T11:09:18.575Z,23.49
2016-10-07T11:10:18.540Z,23.45
2016-10-07T11:11:18.515Z,23.46
2016-10-07T11:12:18.497Z,23.53
2016-10-07T11:13:18.468Z,23.58
2016-10-07T11:14:18.450Z,23.58
2016-10-07T11:15:18.433Z,23.61
2016-10-07T11:16:18.402Z,23.6
2016-10-07T11:17:18.423Z,23.72
2016-10-07T11:18:18.370Z,23.71
2016-10-07T11:19:18.347Z,23.82
2016-10-07T11:20:18.324Z,23.79
2016-10-07T11:21:18.313Z,23.77
2016-10-07T11:22:18.292Z,23.89
2016-10-07T11:23:18.270Z,23.87
2016-10-07T11:24:18.247Z,23.9
2016-10-07T11:25:18.221Z,23.89
2016-10-07T11:26:18.207Z,23.92
2016-10-07T11:27:18.180Z,23.94
2016-10-07T11:28:18.171Z,24.05
2016-10-07T11:29:18.146Z,23.97
2016-10-07T11:30:18.132Z,23.95
2016-10-07T11:31:18.100Z,24.04
2016-10-07T11:32:18.099Z,24.05
2016-10-07T11:33:18.072Z,24.01
2016-10-07T11:34:18.043Z,24.12
2016-10-07T11:35:18.022Z,24.12
2016-10-07T11:36:18.011Z,24.05
2016-10-07T11:37:17.984Z,24.05
2016-10-07T11:38:17.961Z,24.1
2016-10-07T11:39:17.942Z,24.1
2016-10-07T11:40:17.997Z,24.05
2016-10-07T11:41:17.906Z,24.04
2016-10-07T11:42:18.217Z,24
2016-10-07T11:43:17.877Z,23.94
2016-10-07T11:44:17.861Z,24
2016-10-07T11:45:17.834Z,23.94
2016-10-07T11:46:17.852Z,23.87
2016-10-07T11:47:17.822Z,23.95
2016-10-07T11:48:17.807Z,23.8
2016-10-07T11:49:17.793Z,23.76
2016-10-07T11:50:17.716Z,23.8
2016-10-07T11:51:17.700Z,23.68
2016-10-07T11:52:17.679Z,23.7
2016-10-07T11:53:17.652Z,23.61
2016-10-07T11:54:17.649Z,23.67
2016-10-07T11:55:17.654Z,23.55
2016-10-07T11:56:17.600Z,23.61
2016-10-07T11:57:17.915Z,23.49
2016-10-07T11:58:17.554Z,23.52
2016-10-07T11:59:17.544Z,23.52
2016-10-07T12:00:17.517Z,23.4
2016-10-07T12:01:17.500Z,23.43
